sensor_id;sensor_type;location;lat;lon;timestamp;temperature;humidity
18777;DHT22;9517;51.174;4.160;2023-05-08T00:03:02;14.80;99.90
18777;DHT22;9517;51.174;4.160;2023-05-08T00:05:30;14.80;99.90
18777;DHT22;9517;51.174;4.160;2023-05-08T00:07:58;14.80;99.90
18777;DHT22;9517;51.174;4.160;2023-05-08T00:10:43;14.80;99.90
18777;DHT22;9517;51.174;4.160;2023-05-08T00:13:31;14.80;99.90
18777;DHT22;9517;51.174;4.160;2023-05-08T00:16:06;14.70;99.90
18777;DHT22;9517;51.174;4.160;2023-05-08T00:18:49;14.70;99.90
18777;DHT22;9517;51.174;4.160;2023-05-08T00:21:38;14.60;99.90
18777;DHT22;9517;51.174;4.160;2023-05-08T00:24:24;14.70;99.90
18777;DHT22;9517;51.174;4.160;2023-05-08T00:27:07;14.60;99.90
18777;DHT22;9517;51.174;4.160;2023-05-08T00:29:47;14.60;99.90
18777;DHT22;9517;51.174;4.160;2023-05-08T00:32:23;14.60;99.90
18777;DHT22;9517;51.174;4.160;2023-05-08T00:35:17;14.70;99.90
18777;DHT22;9517;51.174;4.160;2023-05-08T00:38:04;14.70;99.90
18777;DHT22;9517;51.174;4.160;2023-05-08T00:40:45;14.80;99.90
18777;DHT22;9517;51.174;4.160;2023-05-08T00:43:19;14.70;99.90
18777;DHT22;9517;51.174;4.160;2023-05-08T00:45:54;14.70;99.90
18777;DHT22;9517;51.174;4.160;2023-05-08T00:48:28;14.70;99.90
18777;DHT22;9517;51.174;4.160;2023-05-08T00:51:17;14.70;99.90
18777;DHT22;9517;51.174;4.160;2023-05-08T00:53:52;14.70;99.90
18777;DHT22;9517;51.174;4.160;2023-05-08T00:56:23;14.70;99.90
18777;DHT22;9517;51.174;4.160;2023-05-08T00:59:02;14.70;99.90
18777;DHT22;9517;51.174;4.160;2023-05-08T01:01:33;14.60;99.90
18777;DHT22;9517;51.174;4.160;2023-05-08T01:04:05;14.70;99.90
18777;DHT22;9517;51.174;4.160;2023-05-08T01:06:40;14.70;99.90
18777;DHT22;9517;51.174;4.160;2023-05-08T01:09:11;14.80;99.90
18777;DHT22;9517;51.174;4.160;2023-05-08T01:11:48;14.80;99.90
18777;DHT22;9517;51.174;4.160;2023-05-08T01:14:26;14.80;99.90
18777;DHT22;9517;51.174;4.160;2023-05-08T01:17:07;14.70;99.90
18777;DHT22;9517;51.174;4.160;2023-05-08T01:19:54;14.60;99.90
18777;DHT22;9517;51.174;4.160;2023-05-08T01:22:54;14.60;99.90
18777;DHT22;9517;51.174;4.160;2023-05-08T01:25:56;14.50;99.90
18777;DHT22;9517;51.174;4.160;2023-05-08T01:29:03;14.30;99.90
18777;DHT22;9517;51.174;4.160;2023-05-08T01:32:03;14.30;99.90
18777;DHT22;9517;51.174;4.160;2023-05-08T01:34:53;14.20;99.90
18777;DHT22;9517;51.174;4.160;2023-05-08T01:37:40;14.10;99.90
18777;DHT22;9517;51.174;4.160;2023-05-08T01:40:16;14.00;99.90
18777;DHT22;9517;51.174;4.160;2023-05-08T01:42:55;13.90;99.90
18777;DHT22;9517;51.174;4.160;2023-05-08T01:45:47;13.90;99.90
18777;DHT22;9517;51.174;4.160;2023-05-08T01:48:37;13.80;99.90
18777;DHT22;9517;51.174;4.160;2023-05-08T01:51:21;13.80;99.90
18777;DHT22;9517;51.174;4.160;2023-05-08T01:54:05;13.70;99.90
18777;DHT22;9517;51.174;4.160;2023-05-08T01:56:39;13.60;99.90
18777;DHT22;9517;51.174;4.160;2023-05-08T01:59:15;13.60;99.90
18777;DHT22;9517;51.174;4.160;2023-05-08T02:01:50;13.60;99.90
18777;DHT22;9517;51.174;4.160;2023-05-08T02:04:27;13.60;99.90
18777;DHT22;9517;51.174;4.160;2023-05-08T02:07:01;13.50;99.90
18777;DHT22;9517;51.174;4.160;2023-05-08T02:09:35;13.50;99.90
18777;DHT22;9517;51.174;4.160;2023-05-08T02:12:17;13.50;99.90
18777;DHT22;9517;51.174;4.160;2023-05-08T02:15:05;13.70;99.90
18777;DHT22;9517;51.174;4.160;2023-05-08T02:17:50;13.60;99.90
18777;DHT22;9517;51.174;4.160;2023-05-08T02:20:30;13.60;99.90
18777;DHT22;9517;51.174;4.160;2023-05-08T02:23:16;13.60;99.90
18777;DHT22;9517;51.174;4.160;2023-05-08T02:26:01;13.60;99.90
18777;DHT22;9517;51.174;4.160;2023-05-08T02:28:49;13.60;99.90
18777;DHT22;9517;51.174;4.160;2023-05-08T02:31:29;13.60;99.90
18777;DHT22;9517;51.174;4.160;2023-05-08T02:34:00;13.60;99.90
18777;DHT22;9517;51.174;4.160;2023-05-08T02:36:38;13.50;99.90
18777;DHT22;9517;51.174;4.160;2023-05-08T02:39:13;13.60;99.90
18777;DHT22;9517;51.174;4.160;2023-05-08T02:41:43;13.60;99.90
18777;DHT22;9517;51.174;4.160;2023-05-08T02:44:19;13.50;99.90
18777;DHT22;9517;51.174;4.160;2023-05-08T02:46:56;13.70;99.90
18777;DHT22;9517;51.174;4.160;2023-05-08T02:49:30;13.70;99.90
18777;DHT22;9517;51.174;4.160;2023-05-08T02:52:12;13.70;99.90
18777;DHT22;9517;51.174;4.160;2023-05-08T02:54:55;13.80;99.90
18777;DHT22;9517;51.174;4.160;2023-05-08T02:57:45;13.80;99.90
18777;DHT22;9517;51.174;4.160;2023-05-08T03:00:39;14.00;99.90
18777;DHT22;9517;51.174;4.160;2023-05-08T03:03:26;13.90;99.90
18777;DHT22;9517;51.174;4.160;2023-05-08T03:06:02;13.80;99.90
18777;DHT22;9517;51.174;4.160;2023-05-08T03:08:34;13.80;99.90
18777;DHT22;9517;51.174;4.160;2023-05-08T03:11:10;13.70;99.90
18777;DHT22;9517;51.174;4.160;2023-05-08T03:13:42;13.80;99.90
18777;DHT22;9517;51.174;4.160;2023-05-08T03:16:20;13.90;99.90
18777;DHT22;9517;51.174;4.160;2023-05-08T03:18:52;13.80;99.90
18777;DHT22;9517;51.174;4.160;2023-05-08T03:21:30;13.80;99.90
18777;DHT22;9517;51.174;4.160;2023-05-08T03:24:08;13.80;99.90
18777;DHT22;9517;51.174;4.160;2023-05-08T03:26:42;13.80;99.90
18777;DHT22;9517;51.174;4.160;2023-05-08T03:29:19;13.80;99.90
18777;DHT22;9517;51.174;4.160;2023-05-08T03:31:50;13.90;99.90
18777;DHT22;9517;51.174;4.160;2023-05-08T03:34:22;13.60;99.90
18777;DHT22;9517;51.174;4.160;2023-05-08T03:36:54;13.40;99.90
18777;DHT22;9517;51.174;4.160;2023-05-08T03:39:32;13.20;99.90
18777;DHT22;9517;51.174;4.160;2023-05-08T03:42:10;13.10;99.90
18777;DHT22;9517;51.174;4.160;2023-05-08T03:44:47;13.10;99.90
18777;DHT22;9517;51.174;4.160;2023-05-08T03:47:20;13.20;99.90
18777;DHT22;9517;51.174;4.160;2023-05-08T03:49:50;13.20;99.90
18777;DHT22;9517;51.174;4.160;2023-05-08T03:52:22;13.30;99.90
18777;DHT22;9517;51.174;4.160;2023-05-08T03:55:05;13.30;99.90
18777;DHT22;9517;51.174;4.160;2023-05-08T03:58:00;13.30;99.90
18777;DHT22;9517;51.174;4.160;2023-05-08T04:00:42;13.40;99.90
18777;DHT22;9517;51.174;4.160;2023-05-08T04:03:23;13.40;99.90
18777;DHT22;9517;51.174;4.160;2023-05-08T04:06:02;13.30;99.90
18777;DHT22;9517;51.174;4.160;2023-05-08T04:08:50;13.30;99.90
18777;DHT22;9517;51.174;4.160;2023-05-08T04:11:47;13.20;99.90
18777;DHT22;9517;51.174;4.160;2023-05-08T04:14:36;13.40;99.90
18777;DHT22;9517;51.174;4.160;2023-05-08T04:17:11;13.40;99.90
18777;DHT22;9517;51.174;4.160;2023-05-08T04:19:50;13.40;99.90
18777;DHT22;9517;51.174;4.160;2023-05-08T04:22:21;13.30;99.90
18777;DHT22;9517;51.174;4.160;2023-05-08T04:24:56;13.20;99.90
18777;DHT22;9517;51.174;4.160;2023-05-08T04:27:26;13.30;99.90
18777;DHT22;9517;51.174;4.160;2023-05-08T04:29:55;13.30;99.90
18777;DHT22;9517;51.174;4.160;2023-05-08T04:32:34;13.30;99.90
18777;DHT22;9517;51.174;4.160;2023-05-08T04:45:31;13.10;99.90
18777;DHT22;9517;51.174;4.160;2023-05-08T04:48:00;13.10;99.90
18777;DHT22;9517;51.174;4.160;2023-05-08T04:50:51;13.10;99.90
18777;DHT22;9517;51.174;4.160;2023-05-08T04:53:26;13.10;99.90
18777;DHT22;9517;51.174;4.160;2023-05-08T04:56:07;13.10;99.90
18777;DHT22;9517;51.174;4.160;2023-05-08T04:58:34;13.00;99.90
18777;DHT22;9517;51.174;4.160;2023-05-08T05:01:03;12.90;99.90
18777;DHT22;9517;51.174;4.160;2023-05-08T05:04:14;12.90;99.90
18777;DHT22;9517;51.174;4.160;2023-05-08T05:06:39;12.90;99.90
18777;DHT22;9517;51.174;4.160;2023-05-08T05:09:06;12.90;99.90
18777;DHT22;9517;51.174;4.160;2023-05-08T05:11:33;12.90;99.90
18777;DHT22;9517;51.174;4.160;2023-05-08T05:14:00;12.90;99.90
18777;DHT22;9517;51.174;4.160;2023-05-08T05:16:29;12.90;99.90
18777;DHT22;9517;51.174;4.160;2023-05-08T05:18:56;13.10;99.90
18777;DHT22;9517;51.174;4.160;2023-05-08T05:21:23;13.20;99.90
18777;DHT22;9517;51.174;4.160;2023-05-08T05:23:51;13.40;99.90
18777;DHT22;9517;51.174;4.160;2023-05-08T05:26:18;13.30;99.90
18777;DHT22;9517;51.174;4.160;2023-05-08T05:28:46;13.30;99.90
18777;DHT22;9517;51.174;4.160;2023-05-08T05:31:13;13.40;99.90
18777;DHT22;9517;51.174;4.160;2023-05-08T05:33:42;13.50;99.90
18777;DHT22;9517;51.174;4.160;2023-05-08T05:36:14;13.60;99.90
18777;DHT22;9517;51.174;4.160;2023-05-08T05:38:41;13.60;99.90
18777;DHT22;9517;51.174;4.160;2023-05-08T05:41:09;13.80;99.90
18777;DHT22;9517;51.174;4.160;2023-05-08T05:43:36;13.90;99.90
18777;DHT22;9517;51.174;4.160;2023-05-08T05:46:03;13.90;99.90
18777;DHT22;9517;51.174;4.160;2023-05-08T05:48:31;13.80;99.90
18777;DHT22;9517;51.174;4.160;2023-05-08T05:51:01;13.80;99.90
18777;DHT22;9517;51.174;4.160;2023-05-08T05:53:28;13.70;99.90
18777;DHT22;9517;51.174;4.160;2023-05-08T05:55:59;13.60;99.90
18777;DHT22;9517;51.174;4.160;2023-05-08T05:58:26;13.70;99.90
18777;DHT22;9517;51.174;4.160;2023-05-08T06:00:54;13.60;99.90
18777;DHT22;9517;51.174;4.160;2023-05-08T06:03:21;13.50;99.90
18777;DHT22;9517;51.174;4.160;2023-05-08T06:05:49;13.60;99.90
18777;DHT22;9517;51.174;4.160;2023-05-08T06:08:18;13.80;99.90
18777;DHT22;9517;51.174;4.160;2023-05-08T06:10:45;14.00;99.90
18777;DHT22;9517;51.174;4.160;2023-05-08T06:13:12;14.20;99.90
18777;DHT22;9517;51.174;4.160;2023-05-08T06:15:39;14.30;99.90
18777;DHT22;9517;51.174;4.160;2023-05-08T06:18:07;14.40;99.90
18777;DHT22;9517;51.174;4.160;2023-05-08T06:20:36;14.60;99.90
18777;DHT22;9517;51.174;4.160;2023-05-08T06:23:04;14.80;99.90
18777;DHT22;9517;51.174;4.160;2023-05-08T06:25:32;14.90;99.90
18777;DHT22;9517;51.174;4.160;2023-05-08T06:28:00;15.00;99.90
18777;DHT22;9517;51.174;4.160;2023-05-08T06:30:28;15.10;99.90
18777;DHT22;9517;51.174;4.160;2023-05-08T06:32:55;15.10;99.90
18777;DHT22;9517;51.174;4.160;2023-05-08T06:35:22;15.20;99.90
18777;DHT22;9517;51.174;4.160;2023-05-08T06:37:49;15.20;99.90
18777;DHT22;9517;51.174;4.160;2023-05-08T06:40:17;15.20;99.90
18777;DHT22;9517;51.174;4.160;2023-05-08T06:42:45;15.60;99.90
18777;DHT22;9517;51.174;4.160;2023-05-08T06:45:13;15.50;99.90
18777;DHT22;9517;51.174;4.160;2023-05-08T06:47:40;15.20;99.90
18777;DHT22;9517;51.174;4.160;2023-05-08T06:50:08;15.20;99.90
18777;DHT22;9517;51.174;4.160;2023-05-08T06:52:36;15.10;99.90
18777;DHT22;9517;51.174;4.160;2023-05-08T06:55:03;14.90;99.90
18777;DHT22;9517;51.174;4.160;2023-05-08T06:57:31;14.80;99.90
18777;DHT22;9517;51.174;4.160;2023-05-08T06:59:59;14.70;99.90
18777;DHT22;9517;51.174;4.160;2023-05-08T07:02:26;14.50;99.90
18777;DHT22;9517;51.174;4.160;2023-05-08T07:04:54;14.50;99.90
18777;DHT22;9517;51.174;4.160;2023-05-08T07:07:21;14.60;99.90
18777;DHT22;9517;51.174;4.160;2023-05-08T07:09:48;14.50;99.90
18777;DHT22;9517;51.174;4.160;2023-05-08T07:12:16;14.50;99.90
18777;DHT22;9517;51.174;4.160;2023-05-08T07:14:46;14.50;99.90
18777;DHT22;9517;51.174;4.160;2023-05-08T07:17:15;14.60;99.90
18777;DHT22;9517;51.174;4.160;2023-05-08T07:19:42;14.80;99.90
18777;DHT22;9517;51.174;4.160;2023-05-08T07:22:09;14.90;99.90
18777;DHT22;9517;51.174;4.160;2023-05-08T07:24:36;14.90;99.90
18777;DHT22;9517;51.174;4.160;2023-05-08T07:27:04;15.00;99.90
18777;DHT22;9517;51.174;4.160;2023-05-08T07:29:31;15.30;99.90
18777;DHT22;9517;51.174;4.160;2023-05-08T07:32:00;15.30;99.90
18777;DHT22;9517;51.174;4.160;2023-05-08T07:34:29;15.30;99.90
18777;DHT22;9517;51.174;4.160;2023-05-08T07:36:58;15.60;99.90
18777;DHT22;9517;51.174;4.160;2023-05-08T07:39:26;15.80;99.90
18777;DHT22;9517;51.174;4.160;2023-05-08T07:41:53;15.70;99.90
18777;DHT22;9517;51.174;4.160;2023-05-08T07:44:20;15.80;99.90
18777;DHT22;9517;51.174;4.160;2023-05-08T07:46:47;15.90;99.90
18777;DHT22;9517;51.174;4.160;2023-05-08T07:49:15;16.10;99.90
18777;DHT22;9517;51.174;4.160;2023-05-08T07:51:44;16.20;99.90
18777;DHT22;9517;51.174;4.160;2023-05-08T07:54:12;16.10;99.90
18777;DHT22;9517;51.174;4.160;2023-05-08T07:56:39;16.10;99.90
18777;DHT22;9517;51.174;4.160;2023-05-08T07:59:06;16.20;99.90
18777;DHT22;9517;51.174;4.160;2023-05-08T08:01:34;16.30;99.90
18777;DHT22;9517;51.174;4.160;2023-05-08T08:04:01;16.60;99.90
18777;DHT22;9517;51.174;4.160;2023-05-08T08:06:28;17.00;99.90
18777;DHT22;9517;51.174;4.160;2023-05-08T08:08:57;16.90;99.90
18777;DHT22;9517;51.174;4.160;2023-05-08T08:11:24;17.10;99.90
18777;DHT22;9517;51.174;4.160;2023-05-08T08:13:54;17.30;99.90
18777;DHT22;9517;51.174;4.160;2023-05-08T08:16:21;17.30;99.90
18777;DHT22;9517;51.174;4.160;2023-05-08T08:18:48;17.20;99.90
18777;DHT22;9517;51.174;4.160;2023-05-08T08:21:17;16.80;99.90
18777;DHT22;9517;51.174;4.160;2023-05-08T08:23:44;16.70;99.90
18777;DHT22;9517;51.174;4.160;2023-05-08T08:26:13;16.60;99.90
18777;DHT22;9517;51.174;4.160;2023-05-08T08:28:40;16.50;99.90
18777;DHT22;9517;51.174;4.160;2023-05-08T08:31:07;16.60;99.90
18777;DHT22;9517;51.174;4.160;2023-05-08T08:33:34;16.80;99.90
18777;DHT22;9517;51.174;4.160;2023-05-08T08:36:01;16.90;99.90
18777;DHT22;9517;51.174;4.160;2023-05-08T08:38:28;17.30;99.90
18777;DHT22;9517;51.174;4.160;2023-05-08T08:40:55;17.80;99.90
18777;DHT22;9517;51.174;4.160;2023-05-08T08:43:24;18.00;99.90
18777;DHT22;9517;51.174;4.160;2023-05-08T08:45:51;18.10;99.90
18777;DHT22;9517;51.174;4.160;2023-05-08T08:48:19;18.20;99.90
18777;DHT22;9517;51.174;4.160;2023-05-08T08:50:49;18.10;99.90
18777;DHT22;9517;51.174;4.160;2023-05-08T08:53:23;17.70;99.90
18777;DHT22;9517;51.174;4.160;2023-05-08T08:55:54;17.40;99.90
18777;DHT22;9517;51.174;4.160;2023-05-08T08:58:30;17.20;99.90
18777;DHT22;9517;51.174;4.160;2023-05-08T09:00:59;17.20;99.90
18777;DHT22;9517;51.174;4.160;2023-05-08T09:03:29;17.00;99.90
18777;DHT22;9517;51.174;4.160;2023-05-08T09:05:58;17.00;99.90
18777;DHT22;9517;51.174;4.160;2023-05-08T09:08:26;17.00;99.90
18777;DHT22;9517;51.174;4.160;2023-05-08T09:10:54;17.10;99.90
18777;DHT22;9517;51.174;4.160;2023-05-08T09:13:21;17.10;99.90
18777;DHT22;9517;51.174;4.160;2023-05-08T09:15:50;17.40;99.90
18777;DHT22;9517;51.174;4.160;2023-05-08T09:18:17;17.50;99.90
18777;DHT22;9517;51.174;4.160;2023-05-08T09:20:44;17.40;99.90
18777;DHT22;9517;51.174;4.160;2023-05-08T09:23:15;17.40;99.90
18777;DHT22;9517;51.174;4.160;2023-05-08T09:25:43;17.20;99.90
18777;DHT22;9517;51.174;4.160;2023-05-08T09:28:15;17.20;99.90
18777;DHT22;9517;51.174;4.160;2023-05-08T09:30:50;17.20;99.90
18777;DHT22;9517;51.174;4.160;2023-05-08T09:33:18;17.10;99.90
18777;DHT22;9517;51.174;4.160;2023-05-08T09:35:45;17.10;99.90
18777;DHT22;9517;51.174;4.160;2023-05-08T09:38:40;17.00;99.90
18777;DHT22;9517;51.174;4.160;2023-05-08T09:41:10;17.10;99.90
18777;DHT22;9517;51.174;4.160;2023-05-08T09:43:38;16.90;99.90
18777;DHT22;9517;51.174;4.160;2023-05-08T09:46:24;16.80;99.90
18777;DHT22;9517;51.174;4.160;2023-05-08T09:48:53;16.70;99.90
18777;DHT22;9517;51.174;4.160;2023-05-08T09:51:20;16.70;99.90
18777;DHT22;9517;51.174;4.160;2023-05-08T09:53:50;16.90;99.90
18777;DHT22;9517;51.174;4.160;2023-05-08T09:56:32;17.10;99.90
18777;DHT22;9517;51.174;4.160;2023-05-08T09:58:59;16.90;99.90
18777;DHT22;9517;51.174;4.160;2023-05-08T10:01:30;17.00;99.90
18777;DHT22;9517;51.174;4.160;2023-05-08T10:03:58;17.00;99.90
18777;DHT22;9517;51.174;4.160;2023-05-08T10:06:27;17.10;99.90
18777;DHT22;9517;51.174;4.160;2023-05-08T10:09:08;17.30;99.90
18777;DHT22;9517;51.174;4.160;2023-05-08T10:11:37;17.30;99.90
18777;DHT22;9517;51.174;4.160;2023-05-08T10:14:04;17.20;99.90
18777;DHT22;9517;51.174;4.160;2023-05-08T10:16:38;17.20;99.90
18777;DHT22;9517;51.174;4.160;2023-05-08T10:19:12;17.40;99.90
18777;DHT22;9517;51.174;4.160;2023-05-08T10:21:41;17.40;99.90
18777;DHT22;9517;51.174;4.160;2023-05-08T10:24:16;17.70;99.90
18777;DHT22;9517;51.174;4.160;2023-05-08T10:26:50;17.70;99.90
18777;DHT22;9517;51.174;4.160;2023-05-08T10:29:31;17.70;99.90
18777;DHT22;9517;51.174;4.160;2023-05-08T10:32:02;17.70;99.90
18777;DHT22;9517;51.174;4.160;2023-05-08T10:34:31;18.00;99.90
18777;DHT22;9517;51.174;4.160;2023-05-08T10:37:00;18.10;99.90
18777;DHT22;9517;51.174;4.160;2023-05-08T10:39:28;18.00;99.90
18777;DHT22;9517;51.174;4.160;2023-05-08T10:41:56;18.20;99.90
18777;DHT22;9517;51.174;4.160;2023-05-08T10:44:25;18.10;99.90
18777;DHT22;9517;51.174;4.160;2023-05-08T10:47:00;18.40;99.90
18777;DHT22;9517;51.174;4.160;2023-05-08T10:49:42;18.80;99.90
18777;DHT22;9517;51.174;4.160;2023-05-08T10:52:15;18.70;99.90
18777;DHT22;9517;51.174;4.160;2023-05-08T10:55:05;18.90;99.90
18777;DHT22;9517;51.174;4.160;2023-05-08T10:57:34;19.00;99.90
18777;DHT22;9517;51.174;4.160;2023-05-08T11:00:01;18.80;99.90
18777;DHT22;9517;51.174;4.160;2023-05-08T11:02:30;18.30;99.90
18777;DHT22;9517;51.174;4.160;2023-05-08T11:05:13;18.00;99.90
18777;DHT22;9517;51.174;4.160;2023-05-08T11:07:54;17.80;99.90
18777;DHT22;9517;51.174;4.160;2023-05-08T11:10:29;17.90;99.90
18777;DHT22;9517;51.174;4.160;2023-05-08T11:12:57;17.90;99.90
18777;DHT22;9517;51.174;4.160;2023-05-08T11:15:35;17.80;99.90
18777;DHT22;9517;51.174;4.160;2023-05-08T11:18:05;17.90;99.90
18777;DHT22;9517;51.174;4.160;2023-05-08T11:20:40;18.00;99.90
18777;DHT22;9517;51.174;4.160;2023-05-08T11:23:25;18.10;99.90
18777;DHT22;9517;51.174;4.160;2023-05-08T11:26:00;18.00;99.90
18777;DHT22;9517;51.174;4.160;2023-05-08T11:28:28;17.80;99.90
18777;DHT22;9517;51.174;4.160;2023-05-08T11:31:01;18.00;99.90
18777;DHT22;9517;51.174;4.160;2023-05-08T11:33:31;18.20;99.90
18777;DHT22;9517;51.174;4.160;2023-05-08T11:36:00;18.60;99.90
18777;DHT22;9517;51.174;4.160;2023-05-08T11:38:37;18.70;99.90
18777;DHT22;9517;51.174;4.160;2023-05-08T11:41:05;19.00;99.90
18777;DHT22;9517;51.174;4.160;2023-05-08T11:46:37;19.50;99.90
18777;DHT22;9517;51.174;4.160;2023-05-08T11:49:10;19.60;99.90
18777;DHT22;9517;51.174;4.160;2023-05-08T11:51:37;19.50;99.90
18777;DHT22;9517;51.174;4.160;2023-05-08T11:54:10;19.60;99.90
18777;DHT22;9517;51.174;4.160;2023-05-08T11:56:38;19.60;99.90
18777;DHT22;9517;51.174;4.160;2023-05-08T11:59:07;19.60;99.90
18777;DHT22;9517;51.174;4.160;2023-05-08T12:01:35;19.40;99.90
18777;DHT22;9517;51.174;4.160;2023-05-08T12:04:04;19.40;99.90
18777;DHT22;9517;51.174;4.160;2023-05-08T12:06:35;19.60;99.90
18777;DHT22;9517;51.174;4.160;2023-05-08T12:09:11;19.90;99.90
18777;DHT22;9517;51.174;4.160;2023-05-08T12:11:41;19.60;99.90
18777;DHT22;9517;51.174;4.160;2023-05-08T12:14:10;19.80;99.90
18777;DHT22;9517;51.174;4.160;2023-05-08T12:16:38;19.80;99.90
18777;DHT22;9517;51.174;4.160;2023-05-08T12:19:09;20.30;99.90
18777;DHT22;9517;51.174;4.160;2023-05-08T12:21:38;20.50;99.90
18777;DHT22;9517;51.174;4.160;2023-05-08T12:24:11;20.20;99.90
18777;DHT22;9517;51.174;4.160;2023-05-08T12:26:39;19.90;99.90
18777;DHT22;9517;51.174;4.160;2023-05-08T12:29:07;19.80;99.90
18777;DHT22;9517;51.174;4.160;2023-05-08T12:31:35;20.00;99.90
18777;DHT22;9517;51.174;4.160;2023-05-08T12:34:02;20.20;99.90
18777;DHT22;9517;51.174;4.160;2023-05-08T12:36:33;20.40;99.90
18777;DHT22;9517;51.174;4.160;2023-05-08T12:39:12;20.40;99.90
18777;DHT22;9517;51.174;4.160;2023-05-08T12:41:47;19.90;99.90
18777;DHT22;9517;51.174;4.160;2023-05-08T12:44:18;20.20;99.90
18777;DHT22;9517;51.174;4.160;2023-05-08T12:46:47;20.30;99.90
18777;DHT22;9517;51.174;4.160;2023-05-08T12:49:22;20.50;99.90
18777;DHT22;9517;51.174;4.160;2023-05-08T12:51:50;21.20;99.90
18777;DHT22;9517;51.174;4.160;2023-05-08T12:54:19;21.40;99.90
18777;DHT22;9517;51.174;4.160;2023-05-08T12:56:57;21.30;99.90
18777;DHT22;9517;51.174;4.160;2023-05-08T12:59:30;21.20;99.90
18777;DHT22;9517;51.174;4.160;2023-05-08T13:01:58;21.10;99.90
18777;DHT22;9517;51.174;4.160;2023-05-08T13:04:25;21.00;99.90
18777;DHT22;9517;51.174;4.160;2023-05-08T13:06:55;20.60;99.90
18777;DHT22;9517;51.174;4.160;2023-05-08T13:09:24;21.00;99.90
18777;DHT22;9517;51.174;4.160;2023-05-08T13:11:51;21.90;99.90
18777;DHT22;9517;51.174;4.160;2023-05-08T13:14:19;22.10;99.90
18777;DHT22;9517;51.174;4.160;2023-05-08T13:16:46;22.00;99.90
18777;DHT22;9517;51.174;4.160;2023-05-08T13:19:14;21.90;99.90
18777;DHT22;9517;51.174;4.160;2023-05-08T13:21:42;21.40;99.90
18777;DHT22;9517;51.174;4.160;2023-05-08T13:24:12;21.10;99.90
18777;DHT22;9517;51.174;4.160;2023-05-08T13:26:41;21.30;99.90
18777;DHT22;9517;51.174;4.160;2023-05-08T13:29:08;21.00;99.90
18777;DHT22;9517;51.174;4.160;2023-05-08T13:31:36;21.30;99.90
18777;DHT22;9517;51.174;4.160;2023-05-08T13:34:03;21.70;99.90
18777;DHT22;9517;51.174;4.160;2023-05-08T13:36:30;21.20;99.90
18777;DHT22;9517;51.174;4.160;2023-05-08T13:38:57;20.90;99.90
18777;DHT22;9517;51.174;4.160;2023-05-08T13:41:24;20.60;99.90
18777;DHT22;9517;51.174;4.160;2023-05-08T13:43:53;20.30;99.90
18777;DHT22;9517;51.174;4.160;2023-05-08T13:46:24;20.20;99.90
18777;DHT22;9517;51.174;4.160;2023-05-08T13:48:51;20.40;99.90
18777;DHT22;9517;51.174;4.160;2023-05-08T13:51:18;20.80;99.90
18777;DHT22;9517;51.174;4.160;2023-05-08T13:53:45;21.00;99.90
18777;DHT22;9517;51.174;4.160;2023-05-08T13:56:12;21.20;99.90
18777;DHT22;9517;51.174;4.160;2023-05-08T13:58:40;21.30;99.90
18777;DHT22;9517;51.174;4.160;2023-05-08T14:01:08;21.50;99.90
18777;DHT22;9517;51.174;4.160;2023-05-08T14:03:35;21.60;99.90
18777;DHT22;9517;51.174;4.160;2023-05-08T14:06:04;21.30;99.90
18777;DHT22;9517;51.174;4.160;2023-05-08T14:08:31;20.90;99.90
18777;DHT22;9517;51.174;4.160;2023-05-08T14:11:05;20.20;99.90
18777;DHT22;9517;51.174;4.160;2023-05-08T14:13:33;20.20;99.90
18777;DHT22;9517;51.174;4.160;2023-05-08T14:16:00;20.40;99.90
18777;DHT22;9517;51.174;4.160;2023-05-08T14:18:30;19.80;99.90
18777;DHT22;9517;51.174;4.160;2023-05-08T14:20:57;20.00;99.90
18777;DHT22;9517;51.174;4.160;2023-05-08T14:23:24;20.20;99.90
18777;DHT22;9517;51.174;4.160;2023-05-08T14:25:52;19.90;99.90
18777;DHT22;9517;51.174;4.160;2023-05-08T14:28:19;19.70;99.90
18777;DHT22;9517;51.174;4.160;2023-05-08T14:30:46;19.80;99.90
18777;DHT22;9517;51.174;4.160;2023-05-08T14:33:14;19.90;99.90
18777;DHT22;9517;51.174;4.160;2023-05-08T14:35:42;19.90;99.90
18777;DHT22;9517;51.174;4.160;2023-05-08T14:38:10;19.70;99.90
18777;DHT22;9517;51.174;4.160;2023-05-08T14:40:37;19.70;99.90
18777;DHT22;9517;51.174;4.160;2023-05-08T14:43:04;19.40;99.90
18777;DHT22;9517;51.174;4.160;2023-05-08T14:45:31;19.00;99.90
18777;DHT22;9517;51.174;4.160;2023-05-08T14:47:58;18.60;99.90
18777;DHT22;9517;51.174;4.160;2023-05-08T14:50:25;18.40;99.90
18777;DHT22;9517;51.174;4.160;2023-05-08T14:52:54;18.30;99.90
18777;DHT22;9517;51.174;4.160;2023-05-08T14:55:21;18.10;99.90
18777;DHT22;9517;51.174;4.160;2023-05-08T14:57:48;18.50;99.90
18777;DHT22;9517;51.174;4.160;2023-05-08T15:00:17;18.10;99.90
18777;DHT22;9517;51.174;4.160;2023-05-08T15:02:45;18.10;99.90
18777;DHT22;9517;51.174;4.160;2023-05-08T15:05:12;18.10;99.90
18777;DHT22;9517;51.174;4.160;2023-05-08T15:07:39;18.10;99.90
18777;DHT22;9517;51.174;4.160;2023-05-08T15:10:08;18.10;99.90
18777;DHT22;9517;51.174;4.160;2023-05-08T15:12:35;18.20;99.90
18777;DHT22;9517;51.174;4.160;2023-05-08T15:15:03;18.10;99.90
18777;DHT22;9517;51.174;4.160;2023-05-08T15:17:31;17.90;99.90
18777;DHT22;9517;51.174;4.160;2023-05-08T15:20:00;17.90;99.90
18777;DHT22;9517;51.174;4.160;2023-05-08T15:22:27;18.20;99.90
18777;DHT22;9517;51.174;4.160;2023-05-08T15:24:54;18.20;99.90
18777;DHT22;9517;51.174;4.160;2023-05-08T15:27:28;18.20;99.90
18777;DHT22;9517;51.174;4.160;2023-05-08T15:29:55;18.50;99.90
18777;DHT22;9517;51.174;4.160;2023-05-08T15:32:22;18.50;99.90
18777;DHT22;9517;51.174;4.160;2023-05-08T15:34:49;18.30;99.90
18777;DHT22;9517;51.174;4.160;2023-05-08T15:37:16;18.30;99.90
18777;DHT22;9517;51.174;4.160;2023-05-08T15:39:43;18.20;99.90
18777;DHT22;9517;51.174;4.160;2023-05-08T15:42:11;18.50;99.90
18777;DHT22;9517;51.174;4.160;2023-05-08T15:44:39;18.70;99.90
18777;DHT22;9517;51.174;4.160;2023-05-08T15:47:06;18.80;99.90
18777;DHT22;9517;51.174;4.160;2023-05-08T15:49:33;18.90;99.90
18777;DHT22;9517;51.174;4.160;2023-05-08T15:52:00;19.10;99.90
18777;DHT22;9517;51.174;4.160;2023-05-08T15:54:27;19.40;99.90
18777;DHT22;9517;51.174;4.160;2023-05-08T15:56:54;19.70;99.90
18777;DHT22;9517;51.174;4.160;2023-05-08T15:59:21;19.80;99.90
18777;DHT22;9517;51.174;4.160;2023-05-08T16:01:50;19.70;99.90
18777;DHT22;9517;51.174;4.160;2023-05-08T16:04:17;19.80;99.90
18777;DHT22;9517;51.174;4.160;2023-05-08T16:06:44;19.60;99.90
18777;DHT22;9517;51.174;4.160;2023-05-08T16:09:11;19.30;99.90
18777;DHT22;9517;51.174;4.160;2023-05-08T16:11:38;19.00;99.90
18777;DHT22;9517;51.174;4.160;2023-05-08T16:14:05;18.80;99.90
18777;DHT22;9517;51.174;4.160;2023-05-08T16:16:33;18.60;99.90
18777;DHT22;9517;51.174;4.160;2023-05-08T16:19:01;18.50;99.90
18777;DHT22;9517;51.174;4.160;2023-05-08T16:21:28;18.50;99.90
18777;DHT22;9517;51.174;4.160;2023-05-08T16:23:56;18.50;99.90
18777;DHT22;9517;51.174;4.160;2023-05-08T16:26:23;18.30;99.90
18777;DHT22;9517;51.174;4.160;2023-05-08T16:28:51;18.20;99.90
18777;DHT22;9517;51.174;4.160;2023-05-08T16:31:18;18.20;99.90